sensor_id;sensor_type;location;lat;lon;timestamp;P1;durP1;ratioP1;P2;durP2;ratioP2
68449;SDS011;67758;39.572;2.652;2024-01-15T00:00:12;11.23;;;1.80;;
68449;SDS011;67758;39.572;2.652;2024-01-15T00:02:38;15.70;;;1.90;;
68449;SDS011;67758;39.572;2.652;2024-01-15T00:05:04;11.73;;;1.90;;
68449;SDS011;67758;39.572;2.652;2024-01-15T00:07:30;15.80;;;2.07;;
68449;SDS011;67758;39.572;2.652;2024-01-15T00:09:55;12.70;;;1.80;;
68449;SDS011;67758;39.572;2.652;2024-01-15T00:12:21;14.35;;;1.75;;
68449;SDS011;67758;39.572;2.652;2024-01-15T00:14:51;9.93;;;1.67;;
68449;SDS011;67758;39.572;2.652;2024-01-15T00:17:17;8.77;;;1.10;;
68449;SDS011;67758;39.572;2.652;2024-01-15T00:19:42;14.38;;;2.33;;
68449;SDS011;67758;39.572;2.652;2024-01-15T00:22:08;5.00;;;1.10;;
68449;SDS011;67758;39.572;2.652;2024-01-15T00:24:36;8.50;;;1.52;;
68449;SDS011;67758;39.572;2.652;2024-01-15T00:27:01;11.47;;;2.00;;
68449;SDS011;67758;39.572;2.652;2024-01-15T00:29:27;10.70;;;1.30;;
68449;SDS011;67758;39.572;2.652;2024-01-15T00:31:53;8.47;;;1.63;;
68449;SDS011;67758;39.572;2.652;2024-01-15T00:34:18;9.52;;;1.45;;
68449;SDS011;67758;39.572;2.652;2024-01-15T00:36:44;11.70;;;1.53;;
68449;SDS011;67758;39.572;2.652;2024-01-15T00:39:09;7.90;;;1.57;;
68449;SDS011;67758;39.572;2.652;2024-01-15T00:41:36;12.55;;;1.77;;
68449;SDS011;67758;39.572;2.652;2024-01-15T00:44:01;8.23;;;1.30;;
68449;SDS011;67758;39.572;2.652;2024-01-15T00:46:28;9.25;;;1.45;;
68449;SDS011;67758;39.572;2.652;2024-01-15T00:48:54;8.90;;;1.63;;
68449;SDS011;67758;39.572;2.652;2024-01-15T00:51:19;9.00;;;1.20;;
68449;SDS011;67758;39.572;2.652;2024-01-15T00:53:45;12.00;;;1.50;;
68449;SDS011;67758;39.572;2.652;2024-01-15T00:56:11;6.32;;;1.60;;
68449;SDS011;67758;39.572;2.652;2024-01-15T00:58:36;9.63;;;1.30;;
68449;SDS011;67758;39.572;2.652;2024-01-15T01:01:02;12.60;;;1.80;;
68449;SDS011;67758;39.572;2.652;2024-01-15T01:03:28;8.63;;;1.25;;
68449;SDS011;67758;39.572;2.652;2024-01-15T01:05:53;11.50;;;1.85;;
68449;SDS011;67758;39.572;2.652;2024-01-15T01:08:19;11.10;;;1.15;;
68449;SDS011;67758;39.572;2.652;2024-01-15T01:10:44;11.30;;;1.70;;
68449;SDS011;67758;39.572;2.652;2024-01-15T01:13:10;14.68;;;1.77;;
68449;SDS011;67758;39.572;2.652;2024-01-15T01:15:36;9.60;;;1.80;;
68449;SDS011;67758;39.572;2.652;2024-01-15T01:18:02;13.23;;;1.67;;
68449;SDS011;67758;39.572;2.652;2024-01-15T01:20:28;9.52;;;1.30;;
68449;SDS011;67758;39.572;2.652;2024-01-15T01:22:53;8.33;;;1.80;;
68449;SDS011;67758;39.572;2.652;2024-01-15T01:25:19;10.07;;;1.40;;
68449;SDS011;67758;39.572;2.652;2024-01-15T01:27:45;14.30;;;1.45;;
68449;SDS011;67758;39.572;2.652;2024-01-15T01:30:10;10.13;;;1.87;;
68449;SDS011;67758;39.572;2.652;2024-01-15T01:32:36;9.50;;;1.15;;
68449;SDS011;67758;39.572;2.652;2024-01-15T01:35:01;8.70;;;1.17;;
68449;SDS011;67758;39.572;2.652;2024-01-15T01:37:27;13.15;;;1.60;;
68449;SDS011;67758;39.572;2.652;2024-01-15T01:39:53;8.77;;;1.60;;
68449;SDS011;67758;39.572;2.652;2024-01-15T01:42:19;11.48;;;1.60;;
68449;SDS011;67758;39.572;2.652;2024-01-15T01:44:44;11.07;;;1.67;;
68449;SDS011;67758;39.572;2.652;2024-01-15T01:47:10;10.93;;;1.65;;
68449;SDS011;67758;39.572;2.652;2024-01-15T01:49:36;8.93;;;1.33;;
68449;SDS011;67758;39.572;2.652;2024-01-15T01:52:02;10.43;;;2.13;;
68449;SDS011;67758;39.572;2.652;2024-01-15T01:54:31;10.27;;;1.30;;
68449;SDS011;67758;39.572;2.652;2024-01-15T01:56:58;7.28;;;2.33;;
68449;SDS011;67758;39.572;2.652;2024-01-15T01:59:25;11.35;;;2.55;;
68449;SDS011;67758;39.572;2.652;2024-01-15T02:01:53;8.63;;;2.03;;
68449;SDS011;67758;39.572;2.652;2024-01-15T02:04:20;9.40;;;1.45;;
68449;SDS011;67758;39.572;2.652;2024-01-15T02:06:48;9.20;;;1.92;;
68449;SDS011;67758;39.572;2.652;2024-01-15T02:09:15;9.30;;;1.97;;
68449;SDS011;67758;39.572;2.652;2024-01-15T02:11:41;10.10;;;1.65;;
68449;SDS011;67758;39.572;2.652;2024-01-15T02:14:08;11.80;;;2.00;;
68449;SDS011;67758;39.572;2.652;2024-01-15T02:16:34;10.50;;;1.70;;
68449;SDS011;67758;39.572;2.652;2024-01-15T02:18:59;11.50;;;1.50;;
68449;SDS011;67758;39.572;2.652;2024-01-15T02:21:25;11.80;;;1.73;;
68449;SDS011;67758;39.572;2.652;2024-01-15T02:23:53;10.93;;;1.60;;
68449;SDS011;67758;39.572;2.652;2024-01-15T02:26:20;13.10;;;1.55;;
68449;SDS011;67758;39.572;2.652;2024-01-15T02:28:46;9.00;;;1.55;;
68449;SDS011;67758;39.572;2.652;2024-01-15T02:31:11;9.13;;;1.60;;
68449;SDS011;67758;39.572;2.652;2024-01-15T02:33:37;11.50;;;1.63;;
68449;SDS011;67758;39.572;2.652;2024-01-15T02:36:03;16.87;;;1.90;;
68449;SDS011;67758;39.572;2.652;2024-01-15T02:38:29;8.07;;;1.60;;
68449;SDS011;67758;39.572;2.652;2024-01-15T02:40:54;7.80;;;1.20;;
68449;SDS011;67758;39.572;2.652;2024-01-15T02:43:20;12.77;;;1.40;;
68449;SDS011;67758;39.572;2.652;2024-01-15T02:45:46;8.07;;;1.30;;
68449;SDS011;67758;39.572;2.652;2024-01-15T02:48:14;11.98;;;1.55;;
68449;SDS011;67758;39.572;2.652;2024-01-15T02:50:39;10.13;;;2.03;;
68449;SDS011;67758;39.572;2.652;2024-01-15T02:53:05;8.60;;;2.17;;
68449;SDS011;67758;39.572;2.652;2024-01-15T02:55:31;11.27;;;1.23;;
68449;SDS011;67758;39.572;2.652;2024-01-15T02:57:56;10.02;;;2.00;;
68449;SDS011;67758;39.572;2.652;2024-01-15T03:00:22;14.95;;;1.75;;
68449;SDS011;67758;39.572;2.652;2024-01-15T03:02:48;16.77;;;2.22;;
68449;SDS011;67758;39.572;2.652;2024-01-15T03:05:15;12.57;;;1.63;;
68449;SDS011;67758;39.572;2.652;2024-01-15T03:07:41;10.30;;;1.90;;
68449;SDS011;67758;39.572;2.652;2024-01-15T03:10:07;8.27;;;1.60;;
68449;SDS011;67758;39.572;2.652;2024-01-15T03:12:33;9.32;;;1.80;;
68449;SDS011;67758;39.572;2.652;2024-01-15T03:14:58;12.80;;;2.05;;
68449;SDS011;67758;39.572;2.652;2024-01-15T03:17:24;12.73;;;2.10;;
68449;SDS011;67758;39.572;2.652;2024-01-15T03:19:50;9.38;;;1.67;;
68449;SDS011;67758;39.572;2.652;2024-01-15T03:22:16;11.20;;;2.30;;
68449;SDS011;67758;39.572;2.652;2024-01-15T03:24:43;13.48;;;2.03;;
68449;SDS011;67758;39.572;2.652;2024-01-15T03:27:09;12.18;;;1.88;;
68449;SDS011;67758;39.572;2.652;2024-01-15T03:29:34;10.33;;;2.10;;
68449;SDS011;67758;39.572;2.652;2024-01-15T03:32:00;11.95;;;2.10;;
68449;SDS011;67758;39.572;2.652;2024-01-15T03:34:26;13.07;;;1.80;;
68449;SDS011;67758;39.572;2.652;2024-01-15T03:36:53;10.50;;;2.67;;
68449;SDS011;67758;39.572;2.652;2024-01-15T03:39:18;13.45;;;1.80;;
68449;SDS011;67758;39.572;2.652;2024-01-15T03:41:44;11.52;;;2.08;;
68449;SDS011;67758;39.572;2.652;2024-01-15T03:44:10;10.17;;;1.97;;
68449;SDS011;67758;39.572;2.652;2024-01-15T03:46:35;11.27;;;1.83;;
68449;SDS011;67758;39.572;2.652;2024-01-15T03:49:01;11.17;;;1.20;;
68449;SDS011;67758;39.572;2.652;2024-01-15T03:51:27;15.60;;;2.55;;
68449;SDS011;67758;39.572;2.652;2024-01-15T03:53:53;8.88;;;1.52;;
68449;SDS011;67758;39.572;2.652;2024-01-15T03:56:18;12.60;;;1.95;;
68449;SDS011;67758;39.572;2.652;2024-01-15T03:58:44;10.73;;;1.23;;
68449;SDS011;67758;39.572;2.652;2024-01-15T04:01:10;8.88;;;1.98;;
68449;SDS011;67758;39.572;2.652;2024-01-15T04:03:36;8.05;;;1.85;;
68449;SDS011;67758;39.572;2.652;2024-01-15T04:06:02;8.93;;;1.45;;
68449;SDS011;67758;39.572;2.652;2024-01-15T04:08:28;9.30;;;1.70;;
68449;SDS011;67758;39.572;2.652;2024-01-15T04:10:54;7.28;;;1.17;;
68449;SDS011;67758;39.572;2.652;2024-01-15T04:13:20;8.88;;;1.50;;
68449;SDS011;67758;39.572;2.652;2024-01-15T04:15:46;8.00;;;1.13;;
68449;SDS011;67758;39.572;2.652;2024-01-15T04:18:11;8.80;;;1.40;;
68449;SDS011;67758;39.572;2.652;2024-01-15T04:20:37;14.50;;;1.60;;
68449;SDS011;67758;39.572;2.652;2024-01-15T04:23:03;12.30;;;1.50;;
68449;SDS011;67758;39.572;2.652;2024-01-15T04:25:29;7.65;;;1.48;;
68449;SDS011;67758;39.572;2.652;2024-01-15T04:27:55;9.13;;;1.40;;
68449;SDS011;67758;39.572;2.652;2024-01-15T04:30:21;12.07;;;2.20;;
68449;SDS011;67758;39.572;2.652;2024-01-15T04:32:46;7.77;;;1.23;;
68449;SDS011;67758;39.572;2.652;2024-01-15T04:35:12;12.20;;;1.13;;
68449;SDS011;67758;39.572;2.652;2024-01-15T04:37:38;8.93;;;1.60;;
68449;SDS011;67758;39.572;2.652;2024-01-15T04:40:04;9.38;;;2.05;;
68449;SDS011;67758;39.572;2.652;2024-01-15T04:42:31;11.80;;;1.83;;
68449;SDS011;67758;39.572;2.652;2024-01-15T04:44:56;10.43;;;2.17;;
68449;SDS011;67758;39.572;2.652;2024-01-15T04:47:22;9.40;;;1.60;;
68449;SDS011;67758;39.572;2.652;2024-01-15T04:49:48;8.45;;;1.33;;
68449;SDS011;67758;39.572;2.652;2024-01-15T04:52:14;10.75;;;1.73;;
68449;SDS011;67758;39.572;2.652;2024-01-15T04:54:40;8.05;;;1.40;;
68449;SDS011;67758;39.572;2.652;2024-01-15T04:57:06;6.78;;;1.50;;
68449;SDS011;67758;39.572;2.652;2024-01-15T04:59:31;10.50;;;1.88;;
68449;SDS011;67758;39.572;2.652;2024-01-15T05:01:57;7.73;;;1.83;;
68449;SDS011;67758;39.572;2.652;2024-01-15T05:04:23;11.48;;;1.88;;
68449;SDS011;67758;39.572;2.652;2024-01-15T05:06:50;9.98;;;1.50;;
68449;SDS011;67758;39.572;2.652;2024-01-15T05:09:15;8.17;;;1.23;;
68449;SDS011;67758;39.572;2.652;2024-01-15T05:11:43;11.90;;;1.58;;
68449;SDS011;67758;39.572;2.652;2024-01-15T05:14:08;10.85;;;1.83;;
68449;SDS011;67758;39.572;2.652;2024-01-15T05:16:34;10.80;;;2.40;;
68449;SDS011;67758;39.572;2.652;2024-01-15T05:19:00;11.93;;;2.20;;
68449;SDS011;67758;39.572;2.652;2024-01-15T05:21:25;7.93;;;2.30;;
68449;SDS011;67758;39.572;2.652;2024-01-15T05:23:51;12.03;;;2.07;;
68449;SDS011;67758;39.572;2.652;2024-01-15T05:26:16;13.18;;;2.17;;
68449;SDS011;67758;39.572;2.652;2024-01-15T05:28:42;12.73;;;2.60;;
68449;SDS011;67758;39.572;2.652;2024-01-15T05:31:08;12.18;;;2.40;;
68449;SDS011;67758;39.572;2.652;2024-01-15T05:33:34;9.90;;;2.35;;
68449;SDS011;67758;39.572;2.652;2024-01-15T05:36:00;9.90;;;2.07;;
68449;SDS011;67758;39.572;2.652;2024-01-15T05:38:25;11.52;;;2.67;;
68449;SDS011;67758;39.572;2.652;2024-01-15T05:40:51;12.50;;;2.53;;
68449;SDS011;67758;39.572;2.652;2024-01-15T05:43:17;11.43;;;2.65;;
68449;SDS011;67758;39.572;2.652;2024-01-15T05:45:43;9.47;;;2.20;;
68449;SDS011;67758;39.572;2.652;2024-01-15T05:48:09;13.73;;;2.63;;
68449;SDS011;67758;39.572;2.652;2024-01-15T05:50:36;14.10;;;2.50;;
68449;SDS011;67758;39.572;2.652;2024-01-15T05:53:01;14.00;;;2.70;;
68449;SDS011;67758;39.572;2.652;2024-01-15T05:55:27;14.73;;;2.58;;
68449;SDS011;67758;39.572;2.652;2024-01-15T05:57:53;14.20;;;2.90;;
68449;SDS011;67758;39.572;2.652;2024-01-15T06:00:19;15.27;;;2.72;;
68449;SDS011;67758;39.572;2.652;2024-01-15T06:02:44;14.00;;;3.00;;
68449;SDS011;67758;39.572;2.652;2024-01-15T06:05:10;19.73;;;3.97;;
68449;SDS011;67758;39.572;2.652;2024-01-15T06:07:36;15.23;;;2.73;;
68449;SDS011;67758;39.572;2.652;2024-01-15T06:10:02;17.20;;;2.42;;
68449;SDS011;67758;39.572;2.652;2024-01-15T06:12:28;11.15;;;2.10;;
68449;SDS011;67758;39.572;2.652;2024-01-15T06:14:54;15.47;;;2.80;;
68449;SDS011;67758;39.572;2.652;2024-01-15T06:17:20;14.55;;;2.55;;
68449;SDS011;67758;39.572;2.652;2024-01-15T06:19:45;17.38;;;2.50;;
68449;SDS011;67758;39.572;2.652;2024-01-15T06:22:11;15.65;;;3.40;;
68449;SDS011;67758;39.572;2.652;2024-01-15T06:24:37;16.10;;;2.73;;
68449;SDS011;67758;39.572;2.652;2024-01-15T06:27:02;15.13;;;2.53;;
68449;SDS011;67758;39.572;2.652;2024-01-15T06:29:28;12.23;;;3.17;;
68449;SDS011;67758;39.572;2.652;2024-01-15T06:31:55;15.38;;;2.60;;
68449;SDS011;67758;39.572;2.652;2024-01-15T06:34:21;14.27;;;2.90;;
68449;SDS011;67758;39.572;2.652;2024-01-15T06:36:46;16.47;;;2.97;;
68449;SDS011;67758;39.572;2.652;2024-01-15T06:39:12;16.65;;;2.83;;
68449;SDS011;67758;39.572;2.652;2024-01-15T06:41:38;11.33;;;2.63;;
68449;SDS011;67758;39.572;2.652;2024-01-15T06:44:09;17.95;;;2.97;;
68449;SDS011;67758;39.572;2.652;2024-01-15T06:46:36;15.73;;;3.83;;
68449;SDS011;67758;39.572;2.652;2024-01-15T06:49:01;19.57;;;3.67;;
68449;SDS011;67758;39.572;2.652;2024-01-15T06:51:28;17.00;;;3.55;;
68449;SDS011;67758;39.572;2.652;2024-01-15T06:53:54;16.92;;;3.63;;
68449;SDS011;67758;39.572;2.652;2024-01-15T06:56:20;18.63;;;3.20;;
68449;SDS011;67758;39.572;2.652;2024-01-15T06:58:46;16.67;;;3.78;;
68449;SDS011;67758;39.572;2.652;2024-01-15T07:01:11;17.00;;;3.33;;
68449;SDS011;67758;39.572;2.652;2024-01-15T07:03:37;21.67;;;3.50;;
68449;SDS011;67758;39.572;2.652;2024-01-15T07:06:05;20.88;;;3.60;;
68449;SDS011;67758;39.572;2.652;2024-01-15T07:08:31;21.27;;;4.32;;
68449;SDS011;67758;39.572;2.652;2024-01-15T07:10:57;16.85;;;3.70;;
68449;SDS011;67758;39.572;2.652;2024-01-15T07:13:22;17.20;;;3.73;;
68449;SDS011;67758;39.572;2.652;2024-01-15T07:15:48;15.32;;;3.25;;
68449;SDS011;67758;39.572;2.652;2024-01-15T07:18:14;18.27;;;3.97;;
68449;SDS011;67758;39.572;2.652;2024-01-15T07:20:39;18.63;;;3.60;;
68449;SDS011;67758;39.572;2.652;2024-01-15T07:23:05;17.95;;;4.30;;
68449;SDS011;67758;39.572;2.652;2024-01-15T07:25:34;17.60;;;3.60;;
68449;SDS011;67758;39.572;2.652;2024-01-15T07:28:10;22.00;;;4.80;;
68449;SDS011;67758;39.572;2.652;2024-01-15T07:30:36;19.42;;;4.38;;
68449;SDS011;67758;39.572;2.652;2024-01-15T07:33:04;20.38;;;3.78;;
68449;SDS011;67758;39.572;2.652;2024-01-15T07:35:30;17.85;;;4.03;;
68449;SDS011;67758;39.572;2.652;2024-01-15T07:37:56;24.80;;;5.10;;
68449;SDS011;67758;39.572;2.652;2024-01-15T07:40:22;26.15;;;4.28;;
68449;SDS011;67758;39.572;2.652;2024-01-15T07:42:47;22.13;;;4.50;;
68449;SDS011;67758;39.572;2.652;2024-01-15T07:45:13;25.33;;;5.30;;
68449;SDS011;67758;39.572;2.652;2024-01-15T07:47:38;19.27;;;4.93;;
68449;SDS011;67758;39.572;2.652;2024-01-15T07:50:04;26.80;;;4.57;;
68449;SDS011;67758;39.572;2.652;2024-01-15T07:52:30;28.90;;;5.28;;
68449;SDS011;67758;39.572;2.652;2024-01-15T07:54:56;20.53;;;4.70;;
68449;SDS011;67758;39.572;2.652;2024-01-15T07:57:24;26.00;;;4.90;;
68449;SDS011;67758;39.572;2.652;2024-01-15T07:59:50;20.73;;;4.07;;
68449;SDS011;67758;39.572;2.652;2024-01-15T08:02:16;21.75;;;4.70;;
68449;SDS011;67758;39.572;2.652;2024-01-15T08:04:42;19.83;;;4.07;;
68449;SDS011;67758;39.572;2.652;2024-01-15T08:07:08;25.75;;;4.80;;
68449;SDS011;67758;39.572;2.652;2024-01-15T08:09:33;21.73;;;4.60;;
68449;SDS011;67758;39.572;2.652;2024-01-15T08:12:00;26.10;;;5.65;;
68449;SDS011;67758;39.572;2.652;2024-01-15T08:14:26;20.92;;;4.43;;
68449;SDS011;67758;39.572;2.652;2024-01-15T08:16:52;20.58;;;4.93;;
68449;SDS011;67758;39.572;2.652;2024-01-15T08:19:17;22.33;;;4.68;;
68449;SDS011;67758;39.572;2.652;2024-01-15T08:21:45;20.50;;;5.55;;
68449;SDS011;67758;39.572;2.652;2024-01-15T08:24:10;23.73;;;5.43;;
68449;SDS011;67758;39.572;2.652;2024-01-15T08:26:36;18.40;;;5.40;;
68449;SDS011;67758;39.572;2.652;2024-01-15T08:29:02;26.35;;;6.35;;
68449;SDS011;67758;39.572;2.652;2024-01-15T08:31:28;19.70;;;5.80;;
68449;SDS011;67758;39.572;2.652;2024-01-15T08:33:53;23.02;;;5.22;;
68449;SDS011;67758;39.572;2.652;2024-01-15T08:36:20;27.98;;;5.80;;
68449;SDS011;67758;39.572;2.652;2024-01-15T08:38:46;29.10;;;6.45;;
68449;SDS011;67758;39.572;2.652;2024-01-15T08:41:12;20.45;;;4.57;;
68449;SDS011;67758;39.572;2.652;2024-01-15T08:43:38;27.52;;;5.35;;
68449;SDS011;67758;39.572;2.652;2024-01-15T08:46:04;16.93;;;4.60;;
68449;SDS011;67758;39.572;2.652;2024-01-15T08:48:30;27.52;;;4.70;;
68449;SDS011;67758;39.572;2.652;2024-01-15T08:50:56;22.90;;;5.13;;
68449;SDS011;67758;39.572;2.652;2024-01-15T08:53:22;26.03;;;5.40;;
68449;SDS011;67758;39.572;2.652;2024-01-15T08:55:48;23.20;;;5.20;;
68449;SDS011;67758;39.572;2.652;2024-01-15T08:58:14;24.48;;;5.53;;
68449;SDS011;67758;39.572;2.652;2024-01-15T09:00:40;24.70;;;5.93;;
68449;SDS011;67758;39.572;2.652;2024-01-15T09:03:05;26.70;;;6.03;;
68449;SDS011;67758;39.572;2.652;2024-01-15T09:05:34;25.33;;;5.97;;
68449;SDS011;67758;39.572;2.652;2024-01-15T09:08:01;23.95;;;6.00;;
68449;SDS011;67758;39.572;2.652;2024-01-15T09:10:26;23.30;;;5.70;;
68449;SDS011;67758;39.572;2.652;2024-01-15T09:12:52;20.65;;;5.55;;
68449;SDS011;67758;39.572;2.652;2024-01-15T09:15:17;25.40;;;5.63;;
68449;SDS011;67758;39.572;2.652;2024-01-15T09:17:44;31.05;;;6.35;;
68449;SDS011;67758;39.572;2.652;2024-01-15T09:20:11;24.92;;;6.63;;
68449;SDS011;67758;39.572;2.652;2024-01-15T09:22:39;19.73;;;5.07;;
68449;SDS011;67758;39.572;2.652;2024-01-15T09:25:08;19.55;;;4.68;;
68449;SDS011;67758;39.572;2.652;2024-01-15T09:27:37;20.05;;;4.70;;
68449;SDS011;67758;39.572;2.652;2024-01-15T09:30:03;21.73;;;5.20;;
68449;SDS011;67758;39.572;2.652;2024-01-15T09:32:30;20.73;;;5.20;;
68449;SDS011;67758;39.572;2.652;2024-01-15T09:34:55;29.55;;;6.65;;
68449;SDS011;67758;39.572;2.652;2024-01-15T09:37:21;27.93;;;6.03;;
68449;SDS011;67758;39.572;2.652;2024-01-15T09:39:46;22.63;;;5.53;;
68449;SDS011;67758;39.572;2.652;2024-01-15T09:42:13;25.77;;;6.18;;
68449;SDS011;67758;39.572;2.652;2024-01-15T09:44:40;22.55;;;4.93;;
68449;SDS011;67758;39.572;2.652;2024-01-15T09:47:06;24.15;;;5.47;;
68449;SDS011;67758;39.572;2.652;2024-01-15T09:49:33;27.17;;;5.70;;
68449;SDS011;67758;39.572;2.652;2024-01-15T09:51:58;21.20;;;5.30;;
68449;SDS011;67758;39.572;2.652;2024-01-15T09:54:25;26.30;;;5.30;;
68449;SDS011;67758;39.572;2.652;2024-01-15T09:56:51;21.92;;;5.47;;
68449;SDS011;67758;39.572;2.652;2024-01-15T09:59:17;20.87;;;4.60;;
68449;SDS011;67758;39.572;2.652;2024-01-15T10:01:44;23.30;;;4.75;;
68449;SDS011;67758;39.572;2.652;2024-01-15T10:04:10;22.83;;;4.15;;
68449;SDS011;67758;39.572;2.652;2024-01-15T10:06:38;21.65;;;4.35;;
68449;SDS011;67758;39.572;2.652;2024-01-15T10:09:04;20.20;;;4.53;;
68449;SDS011;67758;39.572;2.652;2024-01-15T10:11:30;18.40;;;4.20;;
68449;SDS011;67758;39.572;2.652;2024-01-15T10:13:56;21.95;;;4.25;;
68449;SDS011;67758;39.572;2.652;2024-01-15T10:16:22;22.23;;;3.30;;
68449;SDS011;67758;39.572;2.652;2024-01-15T10:18:49;27.23;;;4.73;;
68449;SDS011;67758;39.572;2.652;2024-01-15T10:21:15;26.67;;;4.85;;
68449;SDS011;67758;39.572;2.652;2024-01-15T10:23:41;23.67;;;3.70;;
68449;SDS011;67758;39.572;2.652;2024-01-15T10:26:07;29.52;;;4.88;;
68449;SDS011;67758;39.572;2.652;2024-01-15T10:28:32;27.27;;;5.05;;
68449;SDS011;67758;39.572;2.652;2024-01-15T10:30:59;20.20;;;3.17;;
68449;SDS011;67758;39.572;2.652;2024-01-15T10:33:25;19.93;;;3.37;;
68449;SDS011;67758;39.572;2.652;2024-01-15T10:35:55;20.60;;;3.25;;
68449;SDS011;67758;39.572;2.652;2024-01-15T10:38:22;21.73;;;3.55;;
68449;SDS011;67758;39.572;2.652;2024-01-15T10:40:51;22.92;;;4.35;;
68449;SDS011;67758;39.572;2.652;2024-01-15T10:43:21;22.85;;;3.67;;
68449;SDS011;67758;39.572;2.652;2024-01-15T10:45:48;20.33;;;3.45;;
68449;SDS011;67758;39.572;2.652;2024-01-15T10:48:16;18.10;;;4.38;;
68449;SDS011;67758;39.572;2.652;2024-01-15T10:50:46;24.13;;;5.05;;
68449;SDS011;67758;39.572;2.652;2024-01-15T10:53:14;25.20;;;4.38;;
68449;SDS011;67758;39.572;2.652;2024-01-15T10:55:40;23.48;;;4.65;;
68449;SDS011;67758;39.572;2.652;2024-01-15T10:58:07;21.00;;;4.47;;
68449;SDS011;67758;39.572;2.652;2024-01-15T11:00:34;18.50;;;3.38;;
68449;SDS011;67758;39.572;2.652;2024-01-15T11:03:03;23.20;;;2.90;;
68449;SDS011;67758;39.572;2.652;2024-01-15T11:05:43;14.48;;;2.03;;
68449;SDS011;67758;39.572;2.652;2024-01-15T11:08:10;20.10;;;3.22;;
68449;SDS011;67758;39.572;2.652;2024-01-15T11:13:08;20.48;;;3.53;;
68449;SDS011;67758;39.572;2.652;2024-01-15T11:15:56;22.85;;;3.42;;
68449;SDS011;67758;39.572;2.652;2024-01-15T11:18:22;20.30;;;3.55;;
68449;SDS011;67758;39.572;2.652;2024-01-15T11:21:33;20.13;;;3.03;;
68449;SDS011;67758;39.572;2.652;2024-01-15T11:26:30;17.50;;;3.83;;
68449;SDS011;67758;39.572;2.652;2024-01-15T11:28:59;16.58;;;2.95;;
68449;SDS011;67758;39.572;2.652;2024-01-15T11:31:30;12.63;;;2.22;;
68449;SDS011;67758;39.572;2.652;2024-01-15T11:34:12;16.70;;;3.42;;
68449;SDS011;67758;39.572;2.652;2024-01-15T11:41:57;20.98;;;3.90;;
68449;SDS011;67758;39.572;2.652;2024-01-15T11:44:23;18.13;;;3.10;;
68449;SDS011;67758;39.572;2.652;2024-01-15T11:46:58;17.90;;;3.40;;
68449;SDS011;67758;39.572;2.652;2024-01-15T11:52:23;16.67;;;3.95;;
68449;SDS011;67758;39.572;2.652;2024-01-15T12:00:05;12.57;;;1.58;;
68449;SDS011;67758;39.572;2.652;2024-01-15T12:02:32;10.75;;;1.70;;
68449;SDS011;67758;39.572;2.652;2024-01-15T12:04:58;10.02;;;1.55;;
68449;SDS011;67758;39.572;2.652;2024-01-15T12:07:23;11.82;;;1.65;;
68449;SDS011;67758;39.572;2.652;2024-01-15T12:09:49;11.37;;;1.77;;
68449;SDS011;67758;39.572;2.652;2024-01-15T12:12:19;13.70;;;1.77;;
68449;SDS011;67758;39.572;2.652;2024-01-15T12:15:04;9.60;;;1.63;;
68449;SDS011;67758;39.572;2.652;2024-01-15T12:17:30;9.82;;;1.50;;
68449;SDS011;67758;39.572;2.652;2024-01-15T12:19:56;11.80;;;1.30;;
68449;SDS011;67758;39.572;2.652;2024-01-15T12:22:22;13.75;;;2.40;;
68449;SDS011;67758;39.572;2.652;2024-01-15T12:24:48;13.32;;;1.95;;
68449;SDS011;67758;39.572;2.652;2024-01-15T12:27:14;12.60;;;2.10;;
68449;SDS011;67758;39.572;2.652;2024-01-15T12:29:40;14.68;;;2.08;;
68449;SDS011;67758;39.572;2.652;2024-01-15T12:32:05;10.80;;;1.67;;
68449;SDS011;67758;39.572;2.652;2024-01-15T12:34:33;10.82;;;2.05;;
68449;SDS011;67758;39.572;2.652;2024-01-15T12:36:59;11.50;;;1.65;;
68449;SDS011;67758;39.572;2.652;2024-01-15T12:39:24;13.73;;;1.90;;
68449;SDS011;67758;39.572;2.652;2024-01-15T12:41:51;9.43;;;1.02;;
68449;SDS011;67758;39.572;2.652;2024-01-15T12:44:16;13.48;;;1.70;;
68449;SDS011;67758;39.572;2.652;2024-01-15T12:46:42;12.93;;;3.63;;
68449;SDS011;67758;39.572;2.652;2024-01-15T12:49:08;15.47;;;2.20;;
68449;SDS011;67758;39.572;2.652;2024-01-15T12:51:34;13.90;;;1.92;;
68449;SDS011;67758;39.572;2.652;2024-01-15T12:54:00;12.02;;;2.22;;
68449;SDS011;67758;39.572;2.652;2024-01-15T12:56:25;14.80;;;2.13;;
68449;SDS011;67758;39.572;2.652;2024-01-15T12:58:51;13.48;;;2.00;;
68449;SDS011;67758;39.572;2.652;2024-01-15T13:01:16;17.43;;;2.20;;
68449;SDS011;67758;39.572;2.652;2024-01-15T13:03:42;13.98;;;1.80;;
68449;SDS011;67758;39.572;2.652;2024-01-15T13:06:08;9.67;;;1.90;;
68449;SDS011;67758;39.572;2.652;2024-01-15T13:08:34;13.13;;;2.13;;
68449;SDS011;67758;39.572;2.652;2024-01-15T13:10:59;13.75;;;2.05;;
68449;SDS011;67758;39.572;2.652;2024-01-15T13:13:25;17.88;;;3.63;;
68449;SDS011;67758;39.572;2.652;2024-01-15T13:15:51;12.13;;;2.20;;
68449;SDS011;67758;39.572;2.652;2024-01-15T13:18:17;14.95;;;2.22;;
68449;SDS011;67758;39.572;2.652;2024-01-15T13:20:43;17.80;;;2.33;;
68449;SDS011;67758;39.572;2.652;2024-01-15T13:23:08;19.08;;;3.58;;
68449;SDS011;67758;39.572;2.652;2024-01-15T13:25:35;19.70;;;2.30;;
68449;SDS011;67758;39.572;2.652;2024-01-15T13:28:03;15.57;;;2.30;;
68449;SDS011;67758;39.572;2.652;2024-01-15T13:30:30;16.08;;;2.00;;
68449;SDS011;67758;39.572;2.652;2024-01-15T13:32:56;15.23;;;3.85;;
68449;SDS011;67758;39.572;2.652;2024-01-15T13:35:23;16.33;;;2.83;;
68449;SDS011;67758;39.572;2.652;2024-01-15T13:37:48;15.63;;;2.00;;
68449;SDS011;67758;39.572;2.652;2024-01-15T13:40:14;11.50;;;2.08;;
68449;SDS011;67758;39.572;2.652;2024-01-15T13:42:48;14.30;;;2.97;;
68449;SDS011;67758;39.572;2.652;2024-01-15T13:45:13;11.43;;;2.38;;
68449;SDS011;67758;39.572;2.652;2024-01-15T13:47:40;16.27;;;2.60;;
68449;SDS011;67758;39.572;2.652;2024-01-15T13:50:07;14.38;;;2.10;;
68449;SDS011;67758;39.572;2.652;2024-01-15T13:52:33;6.75;;;2.10;;
68449;SDS011;67758;39.572;2.652;2024-01-15T13:54:59;11.20;;;2.60;;
68449;SDS011;67758;39.572;2.652;2024-01-15T13:57:25;8.82;;;1.40;;
68449;SDS011;67758;39.572;2.652;2024-01-15T13:59:54;10.97;;;1.50;;
68449;SDS011;67758;39.572;2.652;2024-01-15T14:02:20;9.23;;;1.77;;
68449;SDS011;67758;39.572;2.652;2024-01-15T14:04:46;10.30;;;1.10;;
68449;SDS011;67758;39.572;2.652;2024-01-15T14:07:12;9.07;;;1.10;;
68449;SDS011;67758;39.572;2.652;2024-01-15T14:09:37;10.00;;;1.55;;
68449;SDS011;67758;39.572;2.652;2024-01-15T14:12:03;9.85;;;1.23;;
68449;SDS011;67758;39.572;2.652;2024-01-15T14:14:29;9.90;;;1.52;;
68449;SDS011;67758;39.572;2.652;2024-01-15T14:16:55;9.90;;;1.40;;
68449;SDS011;67758;39.572;2.652;2024-01-15T14:19:20;7.60;;;1.30;;
68449;SDS011;67758;39.572;2.652;2024-01-15T14:21:46;13.05;;;1.92;;
68449;SDS011;67758;39.572;2.652;2024-01-15T14:24:12;9.68;;;1.30;;
68449;SDS011;67758;39.572;2.652;2024-01-15T14:26:39;7.93;;;0.83;;
68449;SDS011;67758;39.572;2.652;2024-01-15T14:29:05;6.22;;;1.00;;
68449;SDS011;67758;39.572;2.652;2024-01-15T14:31:31;9.20;;;1.47;;
68449;SDS011;67758;39.572;2.652;2024-01-15T14:33:58;8.05;;;1.63;;
68449;SDS011;67758;39.572;2.652;2024-01-15T14:36:27;7.25;;;1.15;;
68449;SDS011;67758;39.572;2.652;2024-01-15T14:38:53;7.53;;;1.10;;
68449;SDS011;67758;39.572;2.652;2024-01-15T14:41:19;7.45;;;0.90;;
68449;SDS011;67758;39.572;2.652;2024-01-15T14:43:47;7.15;;;1.13;;
68449;SDS011;67758;39.572;2.652;2024-01-15T14:46:13;7.75;;;1.10;;
68449;SDS011;67758;39.572;2.652;2024-01-15T14:48:39;6.63;;;1.13;;
68449;SDS011;67758;39.572;2.652;2024-01-15T14:51:05;10.63;;;1.60;;